createdAt,value
2023-12-15T00:00:57.016Z,53.53
2023-12-15T00:01:56.983Z,53.66
2023-12-15T00:02:56.983Z,52.33
2023-12-15T00:03:56.999Z,53.50
2023-12-15T00:04:56.984Z,53.31
2023-12-15T00:05:56.997Z,53.99
2023-12-15T00:06:57.024Z,53.09
2023-12-15T00:07:57.093Z,55.60
2023-12-15T00:08:57.052Z,53.68
2023-12-15T00:09:57.989Z,56.61
2023-12-15T00:10:57.197Z,54.35
2023-12-15T00:11:57.176Z,54.88
2023-12-15T00:12:57.219Z,54.63
2023-12-15T00:13:57.247Z,57.21
2023-12-15T00:14:57.242Z,53.36
2023-12-15T00:15:57.282Z,55.38
2023-12-15T00:16:57.371Z,53.13
2023-12-15T00:17:57.585Z,54.03
2023-12-15T00:18:57.600Z,53.77
2023-12-15T00:19:57.735Z,54.82
2023-12-15T00:20:57.868Z,55.78
2023-12-15T00:21:57.738Z,53.41
2023-12-15T00:22:57.755Z,57.11
2023-12-15T00:23:57.789Z,52.79
2023-12-15T00:24:57.766Z,57.51
2023-12-15T00:25:57.829Z,54.82
2023-12-15T00:26:57.853Z,54.73
2023-12-15T00:27:57.946Z,55.52
2023-12-15T00:28:58.087Z,56.15
2023-12-15T00:29:58.209Z,55.05
2023-12-15T00:30:58.129Z,54.93
2023-12-15T00:31:58.178Z,55.51
2023-12-15T00:32:58.221Z,54.46
2023-12-15T00:33:58.217Z,53.46
2023-12-15T00:34:58.169Z,54.65
2023-12-15T00:35:58.177Z,54.93
2023-12-15T00:36:58.318Z,55.06
2023-12-15T00:37:58.335Z,54.07
2023-12-15T00:38:58.345Z,54.23
2023-12-15T00:39:58.319Z,52.96
2023-12-15T00:40:58.387Z,53.95
2023-12-15T00:41:58.356Z,53.73
2023-12-15T00:42:58.463Z,54.21
2023-12-15T00:43:58.526Z,53.66
2023-12-15T00:44:58.637Z,51.86
2023-12-15T00:45:58.631Z,54.07
2023-12-15T00:46:58.623Z,52.25
2023-12-15T00:47:58.668Z,54.85
2023-12-15T00:48:58.695Z,52.46
2023-12-15T00:49:58.686Z,52.38
2023-12-15T00:50:58.702Z,53.64
2023-12-15T00:51:58.737Z,54.01
2023-12-15T00:52:58.878Z,53.46
2023-12-15T00:53:58.787Z,52.50
2023-12-15T00:54:58.816Z,56.03
2023-12-15T00:55:58.885Z,53.80
2023-12-15T00:56:58.871Z,52.45
2023-12-15T00:57:58.911Z,55.56
2023-12-15T00:58:58.932Z,55.89
2023-12-15T00:59:58.940Z,55.96
2023-12-15T01:00:58.953Z,55.58
2023-12-15T01:01:58.998Z,53.76
2023-12-15T01:02:59.034Z,52.76
2023-12-15T01:03:59.008Z,55.80
2023-12-15T01:04:59.077Z,56.45
2023-12-15T01:05:59.160Z,52.85
2023-12-15T01:06:59.047Z,54.16
2023-12-15T01:07:59.149Z,53.79
2023-12-15T01:08:59.145Z,53.38
2023-12-15T01:09:59.129Z,53.97
2023-12-15T01:10:59.199Z,55.39
2023-12-15T01:11:59.157Z,55.22
2023-12-15T01:12:59.189Z,54.76
2023-12-15T01:13:59.316Z,54.53
2023-12-15T01:14:59.370Z,55.72
2023-12-15T01:15:59.390Z,55.11
2023-12-15T01:16:59.403Z,56.12
2023-12-15T01:17:59.512Z,56.38
2023-12-15T01:18:59.549Z,52.05
2023-12-15T01:19:59.480Z,54.99
2023-12-15T01:20:59.489Z,53.88
2023-12-15T01:21:59.659Z,54.37
2023-12-15T01:22:59.763Z,57.33
2023-12-15T01:23:59.831Z,54.13
2023-12-15T01:24:59.934Z,54.08
2023-12-15T01:26:00.077Z,53.65
2023-12-15T01:27:00.043Z,53.35
2023-12-15T01:28:00.053Z,53.38
2023-12-15T01:29:00.039Z,54.45
2023-12-15T01:30:00.063Z,53.08
2023-12-15T01:31:00.088Z,53.66
2023-12-15T01:32:00.318Z,54.77
2023-12-15T01:33:00.314Z,53.97
2023-12-15T01:34:00.431Z,53.11
2023-12-15T01:35:00.575Z,54.90
2023-12-15T01:36:00.610Z,54.63
2023-12-15T01:37:00.704Z,52.65
2023-12-15T01:38:00.787Z,53.21
2023-12-15T01:39:00.873Z,53.79
2023-12-15T01:40:01.023Z,55.03
2023-12-15T01:41:00.978Z,53.86
2023-12-15T01:42:01.004Z,52.21
2023-12-15T01:43:01.044Z,53.89
2023-12-15T01:44:01.022Z,52.87
2023-12-15T01:45:01.104Z,52.63
2023-12-15T01:46:05.690Z,54.32
2023-12-15T01:47:02.132Z,54.35
2023-12-15T01:48:01.304Z,54.36
2023-12-15T01:49:01.212Z,53.62
2023-12-15T01:50:01.174Z,54.59
2023-12-15T01:51:01.096Z,56.91
2023-12-15T01:52:01.094Z,56.66
2023-12-15T01:53:01.185Z,55.60
2023-12-15T01:54:01.103Z,53.10
2023-12-15T01:55:01.135Z,54.90
2023-12-15T01:56:01.280Z,56.06
2023-12-15T01:57:01.128Z,54.02
2023-12-15T01:58:01.169Z,55.48
2023-12-15T01:59:01.166Z,53.09
2023-12-15T02:00:01.180Z,53.03
2023-12-15T02:01:01.333Z,55.35
2023-12-15T02:02:01.205Z,53.95
2023-12-15T02:03:01.141Z,55.51
2023-12-15T02:04:01.217Z,53.80
2023-12-15T02:05:01.249Z,52.62
2023-12-15T02:06:01.263Z,55.31
2023-12-15T02:07:01.150Z,54.76
2023-12-15T02:08:01.188Z,54.32
2023-12-15T02:09:01.147Z,57.33
2023-12-15T02:10:01.158Z,56.68
2023-12-15T02:11:01.200Z,55.59
2023-12-15T02:12:01.183Z,57.33
2023-12-15T02:13:01.170Z,57.62
2023-12-15T02:14:01.149Z,56.20
2023-12-15T02:15:01.140Z,57.48
2023-12-15T02:16:01.169Z,57.59
2023-12-15T02:17:01.182Z,58.19
2023-12-15T02:18:01.287Z,57.21
2023-12-15T02:19:01.352Z,57.19
2023-12-15T02:20:01.387Z,58.18
2023-12-15T02:21:01.399Z,57.99
2023-12-15T02:22:01.471Z,56.02
2023-12-15T02:23:01.584Z,57.59
2023-12-15T02:24:01.614Z,59.17
2023-12-15T02:25:01.670Z,58.12
2023-12-15T02:26:01.798Z,57.35
2023-12-15T02:27:01.787Z,60.59
2023-12-15T02:28:01.829Z,59.08
2023-12-15T02:29:01.950Z,57.25
2023-12-15T02:30:01.937Z,59.36
2023-12-15T02:31:02.015Z,56.89
2023-12-15T02:32:02.097Z,57.79
2023-12-15T02:33:02.245Z,58.24
2023-12-15T02:34:02.256Z,58.74
2023-12-15T02:35:02.225Z,57.82
2023-12-15T02:36:02.172Z,58.31
2023-12-15T02:37:02.232Z,58.23
2023-12-15T02:38:02.361Z,56.94
2023-12-15T02:39:02.298Z,56.19
2023-12-15T02:40:02.346Z,56.58
2023-12-15T02:41:02.377Z,59.61
2023-12-15T02:42:02.396Z,60.15
2023-12-15T02:43:02.436Z,57.71
2023-12-15T02:44:02.516Z,59.26
2023-12-15T02:45:02.534Z,58.35
2023-12-15T02:46:02.527Z,57.90
2023-12-15T02:47:02.593Z,57.57
2023-12-15T02:48:02.781Z,55.85
2023-12-15T02:49:02.646Z,57.31
2023-12-15T02:50:02.700Z,55.78
2023-12-15T02:51:03.556Z,58.83
2023-12-15T02:52:02.669Z,56.37
2023-12-15T02:53:02.704Z,54.47
2023-12-15T02:54:02.726Z,55.27
2023-12-15T02:55:02.741Z,55.64
2023-12-15T02:56:02.829Z,55.55
2023-12-15T02:57:02.770Z,57.29
2023-12-15T02:58:02.844Z,55.27
2023-12-15T02:59:02.854Z,57.59
2023-12-15T03:00:02.854Z,55.81
2023-12-15T03:01:02.862Z,53.91
2023-12-15T03:02:02.915Z,55.20
2023-12-15T03:03:02.901Z,55.75
2023-12-15T03:04:02.908Z,56.35
2023-12-15T03:05:02.911Z,55.54
2023-12-15T03:06:02.956Z,54.36
2023-12-15T03:07:02.936Z,54.65
2023-12-15T03:08:02.944Z,54.81
2023-12-15T03:09:02.938Z,55.80
2023-12-15T03:10:02.935Z,55.59
2023-12-15T03:11:02.976Z,55.67
2023-12-15T03:12:02.949Z,55.51
2023-12-15T03:13:03.014Z,57.32
2023-12-15T03:14:03.064Z,54.49
2023-12-15T03:15:03.004Z,55.24
2023-12-15T03:16:03.152Z,55.79
2023-12-15T03:17:03.282Z,54.43
2023-12-15T03:18:03.246Z,54.34
2023-12-15T03:19:03.284Z,56.36
2023-12-15T03:20:03.378Z,54.94
2023-12-15T03:21:03.390Z,55.33
2023-12-15T03:22:03.453Z,55.86
2023-12-15T03:23:03.513Z,56.99
2023-12-15T03:24:03.578Z,56.25
2023-12-15T03:25:03.719Z,56.88
2023-12-15T03:26:03.750Z,55.78
2023-12-15T03:27:03.771Z,57.61
2023-12-15T03:28:03.833Z,54.44
2023-12-15T03:29:03.931Z,55.42
2023-12-15T03:30:03.935Z,55.27
2023-12-15T03:31:04.026Z,55.07
2023-12-15T03:32:04.112Z,54.55
2023-12-15T03:33:04.185Z,55.01
2023-12-15T03:34:04.127Z,54.15
2023-12-15T03:35:04.270Z,56.36
2023-12-15T03:36:04.161Z,56.20
2023-12-15T03:37:04.163Z,55.79
2023-12-15T03:38:04.278Z,55.91
2023-12-15T03:39:04.240Z,56.29
2023-12-15T03:40:04.248Z,55.56
2023-12-15T03:41:04.281Z,56.72
2023-12-15T03:42:04.311Z,57.34
2023-12-15T03:43:04.418Z,55.47
2023-12-15T03:44:04.544Z,55.12
2023-12-15T03:45:04.565Z,55.63
2023-12-15T03:46:04.606Z,54.21
2023-12-15T03:47:04.675Z,55.86
2023-12-15T03:48:04.874Z,53.83
2023-12-15T03:49:04.779Z,55.45
2023-12-15T03:50:04.816Z,53.28
2023-12-15T03:51:04.869Z,53.36
2023-12-15T03:52:04.900Z,53.82
2023-12-15T03:53:05.015Z,53.87
2023-12-15T03:54:05.061Z,55.54
2023-12-15T03:55:05.098Z,56.34
2023-12-15T03:56:05.169Z,55.22
2023-12-15T03:57:05.203Z,55.68
2023-12-15T03:58:05.269Z,53.65
2023-12-15T03:59:05.370Z,54.92
2023-12-15T04:00:05.386Z,55.03
2023-12-15T04:01:05.493Z,55.27
2023-12-15T04:02:07.489Z,54.17
2023-12-15T04:03:05.547Z,53.25
2023-12-15T04:04:05.541Z,55.32
2023-12-15T04:05:05.609Z,55.00
2023-12-15T04:06:05.581Z,53.63
2023-12-15T04:07:05.565Z,53.34
2023-12-15T04:08:05.538Z,54.74
2023-12-15T04:09:05.520Z,54.37
2023-12-15T04:10:05.521Z,55.36
2023-12-15T04:11:05.595Z,54.92
2023-12-15T04:12:05.529Z,53.36
2023-12-15T04:13:05.545Z,53.81
2023-12-15T04:14:05.585Z,52.63
2023-12-15T04:15:05.533Z,55.20
2023-12-15T04:16:05.528Z,54.49
2023-12-15T04:17:05.572Z,55.99
2023-12-15T04:18:05.961Z,54.88
2023-12-15T04:19:05.599Z,54.97
2023-12-15T04:20:05.638Z,51.55
2023-12-15T04:21:05.675Z,54.15
2023-12-15T04:22:05.537Z,54.99
2023-12-15T04:23:05.619Z,55.02
2023-12-15T04:24:05.548Z,53.56
2023-12-15T04:25:05.530Z,51.31
2023-12-15T04:26:05.613Z,53.89
2023-12-15T04:27:05.616Z,52.72
2023-12-15T04:28:05.587Z,52.67
2023-12-15T04:29:05.634Z,53.00
2023-12-15T04:30:05.820Z,52.52
2023-12-15T04:31:05.747Z,50.75
2023-12-15T04:32:05.834Z,53.01
2023-12-15T04:33:05.941Z,54.88
2023-12-15T04:34:05.946Z,53.42
2023-12-15T04:35:06.056Z,53.36
2023-12-15T04:36:06.089Z,53.23
2023-12-15T04:37:13.920Z,50.00
2023-12-15T04:38:13.938Z,50.00
2023-12-15T04:39:13.919Z,50.00
2023-12-15T04:40:13.911Z,50.00
2023-12-15T04:41:13.969Z,50.00
2023-12-15T04:42:13.945Z,50.85
2023-12-15T04:43:13.938Z,51.59
2023-12-15T04:44:13.928Z,52.20
2023-12-15T04:45:13.911Z,52.42
2023-12-15T04:46:13.905Z,50.39
2023-12-15T04:47:13.973Z,50.63
2023-12-15T04:48:13.993Z,50.85
2023-12-15T04:49:13.988Z,50.59
2023-12-15T04:50:13.976Z,51.76
2023-12-15T04:51:13.928Z,51.79
2023-12-15T04:52:13.928Z,50.63
2023-12-15T04:53:13.990Z,50.58
2023-12-15T04:54:13.934Z,51.42
2023-12-15T04:55:13.946Z,52.67
2023-12-15T04:56:13.974Z,52.47
2023-12-15T04:57:13.945Z,52.35
2023-12-15T04:58:13.983Z,52.43
2023-12-15T04:59:14.012Z,50.68
2023-12-15T05:00:13.997Z,52.49
2023-12-15T05:01:13.966Z,54.09
2023-12-15T05:02:14.058Z,53.45
2023-12-15T05:03:14.006Z,53.64
2023-12-15T05:04:13.982Z,52.71
2023-12-15T05:05:14.056Z,53.50
2023-12-15T05:06:14.105Z,52.88
2023-12-15T05:07:14.156Z,50.00
2023-12-15T05:08:14.282Z,54.64
2023-12-15T05:09:14.263Z,52.90
2023-12-15T05:10:14.358Z,54.24
2023-12-15T05:11:14.331Z,53.27
2023-12-15T05:12:14.390Z,53.65
2023-12-15T05:13:14.427Z,52.53
2023-12-15T05:14:14.506Z,51.95
2023-12-15T05:15:14.502Z,53.71
2023-12-15T05:16:14.571Z,54.19
2023-12-15T05:17:14.647Z,54.77
2023-12-15T05:18:14.794Z,54.21
2023-12-15T05:19:14.910Z,52.46
2023-12-15T05:20:14.726Z,56.34
2023-12-15T05:21:14.751Z,56.91
2023-12-15T05:22:14.791Z,54.08
2023-12-15T05:23:14.873Z,54.55
2023-12-15T05:24:14.843Z,53.39
2023-12-15T05:25:14.868Z,55.04
2023-12-15T05:26:15.597Z,55.06
2023-12-15T05:27:14.926Z,53.46
2023-12-15T05:28:14.950Z,55.55
2023-12-15T05:29:14.963Z,55.63
2023-12-15T05:30:15.023Z,53.61
2023-12-15T05:31:14.990Z,52.65
2023-12-15T05:32:15.132Z,53.95
2023-12-15T05:33:15.094Z,55.04
2023-12-15T05:34:15.147Z,55.09
2023-12-15T05:35:15.062Z,54.20
2023-12-15T05:36:15.057Z,54.27
2023-12-15T05:37:15.073Z,53.32
2023-12-15T05:38:15.209Z,54.83
2023-12-15T05:39:15.044Z,54.59
2023-12-15T05:40:15.087Z,55.11
2023-12-15T05:41:15.135Z,51.41
2023-12-15T05:42:15.091Z,53.31
2023-12-15T05:43:15.069Z,54.38
2023-12-15T05:44:15.155Z,53.93
2023-12-15T05:45:15.114Z,56.68
2023-12-15T05:46:15.154Z,54.73
2023-12-15T05:47:15.185Z,53.49
2023-12-15T05:48:15.338Z,54.86
2023-12-15T05:49:15.328Z,54.83
2023-12-15T05:50:15.356Z,54.98
2023-12-15T05:51:15.214Z,54.58
2023-12-15T05:52:15.215Z,53.78
2023-12-15T05:53:15.254Z,54.36
2023-12-15T05:54:15.236Z,53.40
2023-12-15T05:55:15.253Z,55.03
2023-12-15T05:56:15.281Z,55.53
2023-12-15T05:57:15.260Z,54.98
2023-12-15T05:58:15.287Z,57.83
2023-12-15T05:59:15.308Z,52.12
2023-12-15T06:00:15.290Z,53.21
2023-12-15T06:01:37.789Z,52.66
2023-12-15T06:02:15.362Z,52.95
2023-12-15T06:03:15.350Z,54.05
2023-12-15T06:04:15.333Z,54.97
2023-12-15T06:05:15.382Z,56.89
2023-12-15T06:06:15.431Z,58.03
2023-12-15T06:07:15.319Z,60.46
2023-12-15T06:08:15.420Z,59.85
2023-12-15T06:09:15.307Z,57.80
2023-12-15T06:10:15.332Z,55.15
2023-12-15T06:11:15.332Z,57.29
2023-12-15T06:12:15.316Z,57.05
2023-12-15T06:13:15.299Z,56.14
2023-12-15T06:14:15.391Z,55.33
2023-12-15T06:15:15.321Z,55.73
2023-12-15T06:16:15.402Z,54.84
2023-12-15T06:17:15.324Z,53.75
2023-12-15T06:18:15.403Z,56.08
2023-12-15T06:19:15.375Z,54.16
2023-12-15T06:20:15.416Z,55.73
2023-12-15T06:21:15.318Z,54.43
2023-12-15T06:22:15.356Z,55.77
2023-12-15T06:23:15.365Z,53.83
2023-12-15T06:24:15.361Z,54.99
2023-12-15T06:25:15.321Z,56.11
2023-12-15T06:26:15.347Z,55.02
2023-12-15T06:27:15.353Z,54.35
2023-12-15T06:28:15.327Z,53.50
2023-12-15T06:29:15.391Z,55.20
2023-12-15T06:30:15.389Z,56.25
2023-12-15T06:31:15.377Z,55.92
2023-12-15T06:32:15.324Z,56.43
2023-12-15T06:33:15.425Z,51.93
2023-12-15T06:34:15.652Z,49.50
2023-12-15T06:35:15.340Z,44.25
2023-12-15T06:36:15.350Z,52.33
2023-12-15T06:37:15.396Z,51.92
2023-12-15T06:38:15.363Z,55.29
2023-12-15T06:39:15.371Z,58.58
2023-12-15T06:40:15.356Z,62.33
2023-12-15T06:41:16.083Z,60.57
2023-12-15T06:42:15.339Z,62.67
2023-12-15T06:43:15.360Z,60.34
2023-12-15T06:44:15.374Z,58.66
2023-12-15T06:45:15.400Z,56.71
2023-12-15T06:46:38.012Z,50.24
2023-12-15T06:47:16.245Z,50.44
2023-12-15T06:48:15.583Z,50.79
2023-12-15T06:49:18.696Z,51.19
2023-12-15T06:50:15.481Z,49.51
2023-12-15T06:51:15.547Z,47.43
2023-12-15T06:52:15.530Z,47.10
2023-12-15T06:53:15.514Z,46.18
2023-12-15T06:54:15.467Z,47.92
2023-12-15T06:55:15.467Z,52.25
2023-12-15T06:56:15.480Z,56.15
2023-12-15T06:57:15.470Z,59.87
2023-12-15T06:58:15.491Z,65.05
2023-12-15T06:59:15.658Z,69.83
2023-12-15T07:00:15.476Z,73.47
2023-12-15T07:01:15.508Z,71.99
2023-12-15T07:02:15.541Z,76.72
2023-12-15T07:03:15.581Z,76.30
2023-12-15T07:04:15.600Z,77.66
2023-12-15T07:05:16.260Z,80.69
2023-12-15T07:06:15.518Z,83.37
2023-12-15T07:07:15.488Z,85.52
2023-12-15T07:08:15.521Z,84.28
2023-12-15T07:09:17.262Z,85.29
2023-12-15T07:10:17.149Z,89.30
2023-12-15T07:11:16.645Z,89.48
2023-12-15T07:12:15.666Z,90.04
2023-12-15T07:13:15.624Z,92.33
2023-12-15T07:14:16.322Z,95.42
2023-12-15T07:15:15.662Z,102.77
2023-12-15T07:16:15.655Z,104.59
2023-12-15T07:17:15.656Z,104.93
2023-12-15T07:18:15.730Z,104.95
2023-12-15T07:19:16.595Z,110.88
2023-12-15T07:20:15.691Z,113.73
2023-12-15T07:21:15.661Z,115.55
2023-12-15T07:22:18.061Z,119.18
2023-12-15T07:23:15.682Z,119.31
2023-12-15T07:24:15.673Z,120.17
2023-12-15T07:25:15.687Z,122.12
2023-12-15T07:26:15.687Z,125.39
2023-12-15T07:27:15.673Z,132.88
2023-12-15T07:28:15.676Z,135.48
2023-12-15T07:29:15.693Z,139.29
2023-12-15T07:30:15.714Z,140.95
2023-12-15T07:31:15.693Z,141.46
2023-12-15T07:32:15.716Z,146.90
2023-12-15T07:33:15.719Z,151.68
2023-12-15T07:34:16.267Z,153.42
2023-12-15T07:35:24.958Z,154.52
2023-12-15T07:36:16.791Z,154.70
2023-12-15T07:37:15.707Z,155.95
2023-12-15T07:38:15.742Z,158.28
2023-12-15T07:39:16.177Z,161.32
2023-12-15T07:40:15.708Z,170.16
2023-12-15T07:41:15.684Z,170.63
2023-12-15T07:42:15.690Z,175.54
2023-12-15T07:43:15.682Z,175.61
2023-12-15T07:44:15.818Z,178.79
2023-12-15T07:45:15.793Z,178.49
2023-12-15T07:46:16.684Z,179.22
2023-12-15T07:47:15.915Z,180.19
2023-12-15T07:48:16.164Z,180.13
2023-12-15T07:49:16.053Z,183.22
2023-12-15T07:50:16.133Z,184.97
2023-12-15T07:51:16.214Z,186.79
2023-12-15T07:52:16.210Z,187.45
2023-12-15T07:53:16.310Z,188.28
2023-12-15T07:54:16.294Z,189.93
2023-12-15T07:55:16.369Z,191.32
2023-12-15T07:56:16.449Z,191.32
2023-12-15T07:57:16.473Z,192.57
2023-12-15T07:58:16.568Z,194.27
2023-12-15T07:59:19.159Z,195.85
2023-12-15T08:00:16.595Z,195.16
2023-12-15T08:01:16.614Z,199.30
2023-12-15T08:02:16.610Z,198.97
2023-12-15T08:03:16.635Z,198.68
2023-12-15T08:04:16.601Z,200.00
2023-12-15T08:05:16.673Z,197.14
2023-12-15T08:06:16.718Z,199.13
2023-12-15T08:07:16.615Z,200.00
2023-12-15T08:08:16.623Z,195.67
2023-12-15T08:09:16.556Z,198.94
2023-12-15T08:10:16.857Z,197.63
2023-12-15T08:11:17.408Z,196.88
2023-12-15T08:12:16.611Z,198.32
2023-12-15T08:13:16.624Z,198.38
2023-12-15T08:14:16.690Z,199.55
2023-12-15T08:15:16.614Z,197.95
2023-12-15T08:16:16.591Z,198.84
2023-12-15T08:17:16.631Z,198.64
2023-12-15T08:18:16.755Z,197.30
2023-12-15T08:19:16.712Z,198.22
2023-12-15T08:20:16.617Z,198.12
2023-12-15T08:21:16.623Z,197.94
2023-12-15T08:22:16.634Z,195.76
2023-12-15T08:23:16.597Z,195.92
2023-12-15T08:24:16.676Z,196.83
2023-12-15T08:25:16.622Z,197.44
2023-12-15T08:26:16.677Z,195.95
2023-12-15T08:27:16.626Z,197.31
2023-12-15T08:28:16.635Z,195.16
2023-12-15T08:29:16.681Z,194.55
2023-12-15T08:30:16.625Z,195.11
2023-12-15T08:31:16.625Z,196.09
2023-12-15T08:32:16.716Z,199.61
2023-12-15T08:33:16.736Z,197.80
2023-12-15T08:34:16.693Z,199.12
2023-12-15T08:35:16.664Z,195.59
2023-12-15T08:36:16.611Z,189.79
2023-12-15T08:37:16.621Z,190.62
2023-12-15T08:38:16.648Z,200.00
2023-12-15T08:39:18.079Z,202.86
2023-12-15T08:40:16.694Z,202.63
2023-12-15T08:41:16.631Z,200.00
2023-12-15T08:42:16.664Z,199.38
2023-12-15T08:43:16.659Z,200.00
2023-12-15T08:44:24.443Z,199.72
2023-12-15T08:45:17.765Z,199.75
2023-12-15T08:46:16.684Z,197.05
2023-12-15T08:47:16.671Z,194.12
2023-12-15T08:48:16.868Z,192.32
2023-12-15T08:49:16.751Z,192.08
2023-12-15T08:50:16.684Z,192.11
2023-12-15T08:51:16.641Z,192.80
2023-12-15T08:52:16.655Z,194.22
2023-12-15T08:53:16.691Z,194.55
2023-12-15T08:54:17.903Z,194.82
2023-12-15T08:55:16.642Z,194.75
2023-12-15T08:56:16.799Z,197.75
2023-12-15T08:57:16.749Z,199.06
2023-12-15T08:58:16.726Z,199.78
2023-12-15T08:59:17.228Z,198.97
2023-12-15T09:00:16.824Z,199.17
2023-12-15T09:01:16.945Z,199.37
2023-12-15T09:02:17.039Z,198.29
2023-12-15T09:03:17.082Z,198.39
2023-12-15T09:04:17.083Z,199.87
2023-12-15T09:05:30.496Z,198.89
2023-12-15T09:06:26.484Z,198.94
2023-12-15T09:07:18.221Z,199.00
2023-12-15T09:08:17.268Z,199.40
2023-12-15T09:09:17.282Z,199.84
2023-12-15T09:10:17.180Z,200.24
2023-12-15T09:11:17.163Z,202.08
2023-12-15T09:12:17.136Z,200.00
2023-12-15T09:13:17.172Z,199.06
2023-12-15T09:14:17.319Z,199.41
2023-12-15T09:15:17.144Z,198.71
2023-12-15T09:16:17.271Z,199.43
2023-12-15T09:17:17.159Z,198.88
2023-12-15T09:18:17.337Z,196.41
2023-12-15T09:19:17.209Z,195.11
2023-12-15T09:20:17.214Z,194.06
2023-12-15T09:21:17.159Z,192.03
2023-12-15T09:22:17.163Z,189.70
2023-12-15T09:23:17.213Z,187.71
2023-12-15T09:24:17.199Z,183.52
2023-12-15T09:25:17.227Z,181.58
2023-12-15T09:26:17.288Z,181.33
2023-12-15T09:27:17.231Z,177.57
2023-12-15T09:28:17.168Z,177.93
2023-12-15T09:29:17.204Z,175.82
2023-12-15T09:30:17.218Z,175.31
2023-12-15T09:31:17.195Z,173.02
2023-12-15T09:32:17.234Z,172.66
2023-12-15T09:33:17.290Z,172.53
2023-12-15T09:34:17.233Z,173.13
2023-12-15T09:35:17.241Z,173.05
2023-12-15T09:36:17.248Z,174.15
2023-12-15T09:37:17.240Z,173.19
2023-12-15T09:38:17.202Z,172.92
2023-12-15T09:39:17.217Z,171.11
2023-12-15T09:40:17.216Z,172.59
2023-12-15T09:41:17.256Z,172.21
2023-12-15T09:42:17.211Z,173.66
2023-12-15T09:43:17.210Z,172.32
2023-12-15T09:44:17.230Z,170.63
2023-12-15T09:45:17.243Z,168.64
2023-12-15T09:46:17.242Z,164.94
2023-12-15T09:47:17.295Z,161.48
2023-12-15T09:48:17.314Z,159.01
2023-12-15T09:49:17.289Z,156.74
2023-12-15T09:50:17.908Z,148.41
2023-12-15T09:51:17.333Z,144.06
2023-12-15T09:52:17.343Z,141.58
2023-12-15T09:53:17.439Z,137.11
2023-12-15T09:54:17.463Z,132.56
2023-12-15T09:55:17.726Z,128.05
2023-12-15T09:56:17.597Z,126.05
2023-12-15T09:57:17.638Z,124.23
2023-12-15T09:58:17.715Z,119.58
2023-12-15T09:59:17.750Z,118.83
2023-12-15T10:00:18.268Z,119.46
2023-12-15T10:01:17.925Z,119.67
2023-12-15T10:02:17.968Z,119.03
2023-12-15T10:03:17.994Z,118.68
2023-12-15T10:04:17.974Z,119.16
2023-12-15T10:05:18.027Z,119.25
2023-12-15T10:06:18.103Z,119.43
2023-12-15T10:07:18.078Z,120.58
2023-12-15T10:08:18.118Z,119.81
2023-12-15T10:09:18.201Z,120.82
2023-12-15T10:10:18.126Z,122.30
2023-12-15T10:11:18.240Z,123.72
2023-12-15T10:12:18.145Z,126.18
2023-12-15T10:13:18.161Z,127.30
2023-12-15T10:14:18.228Z,126.16
2023-12-15T10:15:18.250Z,124.96
2023-12-15T10:16:18.276Z,124.75
2023-12-15T10:17:18.379Z,124.25
2023-12-15T10:18:24.154Z,123.91
2023-12-15T10:19:19.420Z,123.96
2023-12-15T10:20:18.452Z,123.29
2023-12-15T10:21:18.355Z,124.05
2023-12-15T10:22:18.360Z,121.71
2023-12-15T10:23:18.354Z,123.84
2023-12-15T10:24:18.395Z,120.35
2023-12-15T10:25:18.373Z,119.22
2023-12-15T10:26:18.436Z,117.53
2023-12-15T10:27:18.350Z,115.50
2023-12-15T10:28:18.355Z,114.38
2023-12-15T10:29:18.502Z,113.93
2023-12-15T10:30:18.794Z,112.13
2023-12-15T10:31:18.377Z,113.15
2023-12-15T10:32:18.423Z,111.62
2023-12-15T10:33:18.582Z,109.95
2023-12-15T10:34:18.528Z,108.43
2023-12-15T10:35:18.672Z,107.23
2023-12-15T10:36:18.610Z,107.33
2023-12-15T10:37:18.666Z,105.84
2023-12-15T10:38:18.687Z,103.93
2023-12-15T10:39:18.765Z,104.40
2023-12-15T10:40:19.252Z,103.49
2023-12-15T10:41:18.914Z,102.25
2023-12-15T10:42:18.848Z,101.64
2023-12-15T10:43:18.908Z,101.54
2023-12-15T10:44:18.961Z,99.64
2023-12-15T10:45:19.285Z,99.05
2023-12-15T10:46:19.008Z,99.98
2023-12-15T10:47:19.011Z,99.04
2023-12-15T10:48:19.127Z,99.82
2023-12-15T10:49:19.079Z,100.79
2023-12-15T10:50:19.176Z,99.79
2023-12-15T10:51:19.030Z,100.74
2023-12-15T10:52:19.069Z,100.75
2023-12-15T10:53:19.099Z,101.03
2023-12-15T10:54:19.237Z,101.51
2023-12-15T10:55:19.245Z,103.35
2023-12-15T10:56:19.329Z,102.22
2023-12-15T10:57:19.380Z,103.18
2023-12-15T10:58:19.428Z,103.48
2023-12-15T10:59:20.270Z,102.90
2023-12-15T11:00:19.483Z,104.51
2023-12-15T11:01:19.499Z,105.07
2023-12-15T11:02:19.632Z,105.08
2023-12-15T11:03:19.584Z,105.73
2023-12-15T11:04:19.563Z,107.46
2023-12-15T11:06:19.663Z,110.05
2023-12-15T11:07:19.803Z,109.90
2023-12-15T11:08:19.866Z,111.12
2023-12-15T11:09:19.755Z,113.10
2023-12-15T11:10:19.839Z,112.84
2023-12-15T11:11:19.997Z,113.43
2023-12-15T11:12:19.899Z,114.37
2023-12-15T11:13:19.954Z,115.71
2023-12-15T11:14:20.031Z,117.45
2023-12-15T11:15:20.000Z,116.60
2023-12-15T11:16:20.074Z,117.97
2023-12-15T11:17:20.124Z,120.11
2023-12-15T11:18:20.271Z,120.03
2023-12-15T11:19:20.215Z,122.91
2023-12-15T11:20:20.271Z,122.36
2023-12-15T11:21:20.211Z,124.65
2023-12-15T11:22:20.206Z,124.78
2023-12-15T11:23:20.280Z,123.49
2023-12-15T11:24:20.279Z,126.74
2023-12-15T11:25:20.333Z,127.36
2023-12-15T11:26:20.342Z,127.97
2023-12-15T11:27:20.334Z,127.42
2023-12-15T11:28:20.348Z,129.41
2023-12-15T11:29:20.384Z,130.41
2023-12-15T11:30:20.436Z,131.49
2023-12-15T11:31:20.779Z,131.11
2023-12-15T11:32:20.504Z,133.64
2023-12-15T11:33:20.498Z,135.05
2023-12-15T11:34:20.585Z,136.35
2023-12-15T11:35:20.557Z,138.68
2023-12-15T11:36:20.820Z,137.84
2023-12-15T11:37:20.517Z,137.96
2023-12-15T11:38:20.661Z,140.87
2023-12-15T11:39:20.667Z,139.77
2023-12-15T11:40:20.686Z,140.02
2023-12-15T11:41:21.040Z,139.68
2023-12-15T11:42:20.758Z,140.81
2023-12-15T11:43:20.784Z,139.91
2023-12-15T11:44:20.895Z,140.02
2023-12-15T11:45:20.958Z,138.46
2023-12-15T11:46:20.932Z,138.46
2023-12-15T11:47:21.037Z,136.94
2023-12-15T11:48:21.123Z,136.62
2023-12-15T11:49:21.154Z,138.01
2023-12-15T11:50:21.216Z,137.84
2023-12-15T11:51:21.220Z,136.81
2023-12-15T11:52:21.225Z,135.27
2023-12-15T11:53:21.354Z,135.82
2023-12-15T11:54:21.308Z,135.23
2023-12-15T11:55:21.373Z,133.55
2023-12-15T11:56:21.398Z,134.71
2023-12-15T11:57:21.393Z,134.21
2023-12-15T11:58:21.453Z,134.62
2023-12-15T11:59:21.512Z,135.15
2023-12-15T12:00:21.542Z,133.54
2023-12-15T12:01:21.624Z,133.54
2023-12-15T12:02:22.632Z,132.43
2023-12-15T12:03:21.664Z,133.25
2023-12-15T12:04:21.842Z,133.39
2023-12-15T12:05:21.796Z,133.41
2023-12-15T12:06:22.208Z,133.03
2023-12-15T12:07:21.848Z,132.06
2023-12-15T12:08:21.901Z,131.73
2023-12-15T12:09:21.955Z,132.06
2023-12-15T12:10:21.976Z,133.46
2023-12-15T12:11:22.038Z,132.17
2023-12-15T12:12:22.082Z,131.39
2023-12-15T12:13:22.202Z,131.49
2023-12-15T12:14:22.270Z,130.57
2023-12-15T12:15:22.313Z,129.92
2023-12-15T12:16:22.392Z,129.27
2023-12-15T12:17:22.491Z,128.39
2023-12-15T12:18:22.634Z,128.25
2023-12-15T12:19:22.599Z,127.78
2023-12-15T12:20:22.788Z,127.02
2023-12-15T12:21:22.717Z,125.46
2023-12-15T12:22:22.761Z,123.51
2023-12-15T12:23:28.297Z,123.20
2023-12-15T12:24:23.852Z,123.28
2023-12-15T12:25:22.849Z,122.76
2023-12-15T12:26:22.884Z,121.62
2023-12-15T12:27:22.868Z,119.36
2023-12-15T12:28:22.872Z,117.95
2023-12-15T12:29:22.903Z,118.28
2023-12-15T12:30:22.833Z,115.72
2023-12-15T12:31:23.362Z,115.92
2023-12-15T12:32:23.006Z,115.39
2023-12-15T12:33:22.946Z,114.62
2023-12-15T12:34:22.972Z,114.80
2023-12-15T12:35:22.891Z,113.70
2023-12-15T12:36:23.328Z,113.26
2023-12-15T12:37:22.930Z,111.94
2023-12-15T12:38:22.988Z,110.27
2023-12-15T12:39:22.983Z,110.00
2023-12-15T12:40:23.054Z,108.99
2023-12-15T12:41:23.329Z,107.35
2023-12-15T12:42:23.124Z,106.56
2023-12-15T12:43:23.181Z,106.61
2023-12-15T12:44:23.239Z,104.92